Begishevo Airport
UWKE : now visible

Airfield :











YOU CAN JOIN US ON...

 
LOGIN :

Register | Disclaimer

   EN    FR    IT 

 









Legend :    VFR   Marginal VFR   IFR   Intensive IFR   Very Intensive IFR
Visi :
Ceiling :
>= 8 km
>= 3000ft
5 to 8 km
1000 to 3000 ft
1500m to 5 km
500 to 1000 ft
800 to 1500m
200 to 500 ft
< 800m
< 200 ft
Symbols :   Thunderstorms  Fog  Heavy snow  Heavy precipitations  Wind > 20 kt






- Airport Elevation : 643 ft
- IATA code : NBC


UWKE - Begishevo

CURRENT METAR :
  • 271130Z 20005MPS 1500 SN BR BKN004 01/M00 Q1006 R21/520555 NOSIG RMK OBST OBSC QFE737/0983

EXPIRED METARs :
  • 271100Z 20006MPS 2200 -SN BR BKN004 01/M00 Q1005 R21/520555 NOSIG RMK OBST OBSC QFE737/0982
  • 271030Z 21005MPS 1900 SN BR BKN004 01/00 Q1005 R21/520555 NOSIG RMK OBST OBSC QFE737/0982
  • 271000Z 21005MPS 1600 SN BR BKN004 01/00 Q1005 REDZ R21/520555 NOSIG RMK OBST OBSC QFE737/0982
  • 270930Z 21007MPS 2500 -DZ BR OVC005 01/M00 Q1005 R21/520555 NOSIG RMK OBST OBSC QFE737/0982
  • 270900Z 21007MPS 2200 -DZ BR OVC004 01/M00 Q1004 R21/520555 NOSIG RMK OBST OBSC QFE736/0982

TAF TAF UWKE
Valid from the 27 at 12:00 until the 28 at 12:00 UTC


271045Z 2712/2812 19006G12MPS 2100 -SNRA BR BKN005
TEMPO 2712/2724 17005MPS 0700 SNRA FZFG OVC003
FM280000 18006G13MPS 3100 -SNRA BR BKN011
TEMPO 2721/2809 17007G14MPS 1000 SNRA BR OVC003



MET'MAP, your aeronautical weather chart ! - Copyright ORBIFLY December 2007 - Disclaimer

ORBIFLY MET'MAP TEAM :

Programming & Development : Alexandra Zaïnal
Concept & original design : Baudouin d'Aumeries
Assistance for programming : Marc-Olivier Méhu
Technical & hardware support : Manuel Goepfert

Contact : metmap@orbifly.com




SOURCES & CREDITS :

   NOAA       Earth
Advisory